Iacsonvilla, FL (32257)

06:32 PM EDT die 17o October, anno 2017 (GMT -0400)
Spanish Wells | | Change Station
Active Advisory: Coastal Flood Advisory Active Notice: Coastal Flood Advisory

Elev 26 ft 30.21 °N, 81.61 °W | Updated 10 seconds ago

Aequaliter Nubila
Aequaliter Nubila
68.0 °F
Feels Like 68.0 °F
N
4.0
Ventus Variabilis Ventus from Inter Aquilonem et Eurum

Hodie
High -- | Low -- °F
--% Chance of Precip.
Yesterday
High -- | Low -- °F
Precip. -- in
Pressio 30.14 in
Visibilitas 10.0 milia passuum
Clouds Aequaliter Nubila 1900 ft
Frigus in quo Ros apparet 61 °F
Umor 80%
Rainfall 0.79 in
Snow Depth Not available.
7:29 AM 6:52 PM
Waning Crescent, 4% visible
METAR KNIP 172153Z 01020G26KT 10SM OVC019 21/16 A3015 RMK AO2 PK WND 01026/2153 SLP204 T02060161
Pressio 30.14 in
Visibilitas 10.0 milia passuum
Clouds Aequaliter Nubila 1900 ft
Frigus in quo Ros apparet 61 °F
Umor 80%
Rainfall 0.79 in
Snow Depth Not available.
7:29 AM 6:52 PM
Waning Crescent, 4% visible
METAR KNIP 172153Z 01020G26KT 10SM OVC019 21/16 A3015 RMK AO2 PK WND 01026/2153 SLP204 T02060161

Get Your Daily Forecast Email!

Thanks for signing up!

Be on the lookout for a verification email in your inbox.

You'll start receiving severe weather alerts in your inbox..

×

10-Day Weather Forecast

Almanac

Astronomy

Oct. 17, 2017 Rise Set
Actual Time
Civil Twilight
Nautical Twilight
Astronomical Twilight
Moon
Length Of Visible Light
Length of Day
Tomorrow will be .
, % of the Moon is Illuminated

Today's Extremes

State Highs State Lows

Community

WunderPhotos

Category 6

Welcome to Category 6. This is the collective home for Weather Underground's featured writeups by Dr. Jeff Masters (right), Bob Henson (left), Chris Burt, and other regular contributors.

Nearby

Air Quality

  Air Quality AQ Index Pollutant
Not available.

Snow Depth

Station Depth Elevation

Earthquake Activity

City Distance Mag. Time & Date
Minimum magnitude displayed is 2.5.

Coastal Water Temperatures

Locus Calor

Stations

Nearby Weather Stations

Station Location Temp Frigus Venti Frigus in quo Ros apparet Umor Ventus Precip. Elev Renovata Type
                   

Watches & Warnings

Coastal Flood Advisory
Issued: 2:32 PM EDT Oct. 17, 2017 – National Weather Service

... Coastal flood advisory now in effect until 7 PM EDT Thursday...

* coastal flooding... minor tidal flooding is expected around
times of high tide within the St. Johns River basin and its
tributaries.

* Timing... through Thursday evening.

* Impacts... river and creek flooding around the times of high
tide will cause minor flooding of mainly Parks, campgrounds,
docks and boat ramps.

Precautionary/preparedness actions...

A coastal flood advisory indicates that onshore winds and tides
will combine to generate flooding of low areas along the shore.



Nelson